Time;durP1;ratioP1;P1;durP2;ratioP2;P2;SDS_P1;SDS_P2;PMS_P1;PMS_P2;Temp;Humidity;BMP_temperature;BMP_pressure;BME280_temperature;BME280_humidity;BME280_pressure;Samples;Min_cycle;Max_cycle;Signal;HPM_P1;HPM_P2
2023/10/08 00:01:02;;;;;;;0.00;0.00;;;;;;;18.39;100.00;102261.81;5107700;28;20031;-46
2023/10/08 00:03:29;;;;;;;0.00;0.00;;;;;;;18.39;100.00;102267.25;5110256;28;20483;-44
2023/10/08 00:05:55;;;;;;;0.00;0.00;;;;;;;18.32;100.00;102266.34;5109443;28;20015;-44
2023/10/08 00:08:21;;;;;;;0.00;0.00;;;;;;;18.32;100.00;102262.78;5122063;27;20122;-46
2023/10/08 00:10:47;;;;;;;0.00;0.00;;;;;;;18.31;100.00;102274.75;5109939;28;20026;-45
2023/10/08 00:13:15;;;;;;;0.00;0.00;;;;;;;18.25;100.00;102268.22;5111164;28;20032;-44
2023/10/08 00:15:53;;;;;;;0.00;0.00;;;;;;;18.21;100.00;102258.72;5110016;28;20027;-45
2023/10/08 00:18:20;;;;;;;0.00;0.00;;;;;;;18.16;100.00;102259.31;5094619;28;20032;-45
2023/10/08 00:23:30;;;;;;;0.00;0.00;;;;;;;18.10;100.00;102249.22;5111866;28;20100;-44
2023/10/08 00:25:57;;;;;;;0.00;0.00;;;;;;;18.08;100.00;102245.84;5111485;28;20031;-45
2023/10/08 00:28:24;;;;;;;0.00;0.00;;;;;;;18.05;100.00;102240.78;5110318;28;20054;-46
2023/10/08 00:30:49;;;;;;;0.00;0.00;;;;;;;18.02;100.00;102237.63;5105949;28;20028;-47
2023/10/08 00:33:16;;;;;;;0.00;0.00;;;;;;;17.99;100.00;102236.97;5090441;28;20027;-46
2023/10/08 00:35:42;;;;;;;0.00;0.00;;;;;;;17.97;100.00;102232.78;5090096;28;20078;-44
2023/10/08 00:38:14;;;;;;;0.00;0.00;;;;;;;17.98;100.00;102235.31;5090732;28;20020;-46
2023/10/08 00:40:44;;;;;;;0.00;0.00;;;;;;;18.01;100.00;102231.34;5113622;27;20063;-44
2023/10/08 00:43:12;;;;;;;0.00;0.00;;;;;;;18.03;100.00;102214.78;5110223;28;20023;-43
2023/10/08 00:45:43;;;;;;;0.00;0.00;;;;;;;18.04;100.00;102222.78;5091578;28;20015;-44
2023/10/08 00:48:16;;;;;;;0.00;0.00;;;;;;;18.02;100.00;102229.47;5109979;28;20099;-46
2023/10/08 00:50:42;;;;;;;0.00;0.00;;;;;;;18.04;100.00;102233.69;5109554;28;20031;-45
2023/10/08 00:53:18;;;;;;;0.00;0.00;;;;;;;18.07;100.00;102232.44;5110509;28;20019;-45
2023/10/08 00:55:52;;;;;;;0.00;0.00;;;;;;;18.08;100.00;102245.84;5092230;28;20472;-44
2023/10/08 00:58:24;;;;;;;0.00;0.00;;;;;;;18.10;100.00;102251.94;5108999;28;20032;-43
2023/10/08 01:00:52;;;;;;;0.00;0.00;;;;;;;18.11;100.00;102248.16;5108129;28;20035;-45
2023/10/08 01:03:19;;;;;;;0.00;0.00;;;;;;;18.12;100.00;102263.50;5092408;28;20055;-45
2023/10/08 01:05:48;;;;;;;0.00;0.00;;;;;;;18.13;100.00;102261.59;5110313;28;20114;-45
2023/10/08 01:08:22;;;;;;;0.00;0.00;;;;;;;18.13;100.00;102265.16;5109793;28;20031;-44
2023/10/08 01:10:48;;;;;;;0.00;0.00;;;;;;;18.07;100.00;102257.78;5109886;28;20032;-47
2023/10/08 01:13:20;;;;;;;0.00;0.00;;;;;;;18.06;100.00;102260.69;5091781;28;20030;-47
2023/10/08 01:15:50;;;;;;;0.00;0.00;;;;;;;18.05;100.00;102259.03;5109713;28;20031;-45
2023/10/08 01:18:17;;;;;;;0.00;0.00;;;;;;;18.00;100.00;102243.28;5106643;28;20031;-45
2023/10/08 01:23:26;;;;;;;0.00;0.00;;;;;;;17.96;100.00;102247.44;5109182;28;20036;-45
2023/10/08 01:25:52;;;;;;;0.00;0.00;;;;;;;17.95;100.00;102262.09;5109234;28;20035;-45
2023/10/08 01:28:28;;;;;;;0.00;0.00;;;;;;;17.96;100.00;102247.44;5108128;28;20040;-43
2023/10/08 01:30:55;;;;;;;0.00;0.00;;;;;;;17.98;100.00;102250.78;5109622;28;20059;-47
2023/10/08 01:33:22;;;;;;;0.00;0.00;;;;;;;17.99;100.00;102266.13;5108761;28;20035;-46
2023/10/08 01:35:50;;;;;;;0.00;0.00;;;;;;;18.01;100.00;102272.22;5109572;28;20172;-47
2023/10/08 01:38:22;;;;;;;0.00;0.00;;;;;;;18.02;100.00;102270.31;5109602;28;20042;-45
2023/10/08 01:40:51;;;;;;;0.00;0.00;;;;;;;18.04;100.00;102279.16;5108933;28;20032;-42
2023/10/08 01:43:17;;;;;;;0.00;0.00;;;;;;;18.04;100.00;102288.16;5110932;28;20019;-46
2023/10/08 01:45:43;;;;;;;0.00;0.00;;;;;;;18.03;100.00;102286.47;5109604;28;20038;-43
2023/10/08 01:48:11;;;;;;;0.00;0.00;;;;;;;18.02;100.00;102295.69;5109578;28;20024;-43
2023/10/08 01:50:37;;;;;;;0.00;0.00;;;;;;;18.03;100.00;102313.69;5108951;28;20541;-46
2023/10/08 01:53:05;;;;;;;0.00;0.00;;;;;;;18.04;100.00;102299.06;5108717;28;20035;-46
2023/10/08 01:55:33;;;;;;;0.00;0.00;;;;;;;18.03;100.00;102305.53;5108504;28;20126;-44
2023/10/08 01:57:59;;;;;;;0.00;0.00;;;;;;;18.04;100.00;102304.50;5105063;28;20024;-44
2023/10/08 02:00:26;;;;;;;0.00;0.00;;;;;;;18.04;100.00;102309.13;5103135;28;20535;-44
2023/10/08 02:02:53;;;;;;;0.00;0.00;;;;;;;18.06;100.00;102302.44;5110100;28;20043;-43
2023/10/08 02:05:19;;;;;;;0.00;0.00;;;;;;;18.10;100.00;102302.88;5110186;28;20489;-43
2023/10/08 02:07:45;;;;;;;0.00;0.00;;;;;;;18.07;100.00;102304.13;5109745;28;20115;-43
2023/10/08 02:10:11;;;;;;;0.00;0.00;;;;;;;18.06;100.00;102301.56;5110355;28;20062;-42
2023/10/08 02:12:37;;;;;;;0.00;0.00;;;;;;;18.05;100.00;102299.91;5109779;28;20023;-46
2023/10/08 02:15:04;;;;;;;0.00;0.00;;;;;;;18.02;100.00;102297.56;5110096;28;20493;-43
2023/10/08 02:17:29;;;;;;;0.00;0.00;;;;;;;17.99;100.00;102298.81;5109982;28;20092;-43
2023/10/08 02:19:55;;;;;;;0.00;0.00;;;;;;;17.96;100.00;102285.56;5110161;28;20023;-46
2023/10/08 02:22:20;;;;;;;0.00;0.00;;;;;;;17.93;100.00;102277.78;5111904;28;20458;-44
2023/10/08 02:24:46;;;;;;;0.00;0.00;;;;;;;17.91;100.00;102275.25;5109750;28;20020;-43
2023/10/08 02:27:15;;;;;;;0.00;0.00;;;;;;;17.90;100.00;102275.44;5110179;28;20124;-43
2023/10/08 02:29:41;;;;;;;0.00;0.00;;;;;;;17.90;100.00;102291.78;5109709;28;20422;-43
2023/10/08 02:32:07;;;;;;;0.00;0.00;;;;;;;17.91;100.00;102294.31;5109940;28;20081;-43
2023/10/08 02:34:32;;;;;;;0.00;0.00;;;;;;;17.90;100.00;102302.69;5109474;28;20035;-44
2023/10/08 02:36:59;;;;;;;0.00;0.00;;;;;;;17.88;100.00;102296.63;5110439;28;20057;-43
2023/10/08 02:39:27;;;;;;;0.00;0.00;;;;;;;17.87;100.00;102311.25;5093150;28;20026;-43
2023/10/08 02:41:56;;;;;;;0.00;0.00;;;;;;;17.85;100.00;102307.88;5113509;28;20085;-44
2023/10/08 02:44:22;;;;;;;0.00;0.00;;;;;;;17.84;100.00;102303.47;5113752;28;20019;-43
2023/10/08 02:46:48;;;;;;;0.00;0.00;;;;;;;17.82;100.00;102306.38;5113382;28;20381;-45
2023/10/08 02:49:20;;;;;;;0.00;0.00;;;;;;;17.81;100.00;102309.31;5113291;28;20559;-44
2023/10/08 02:51:51;;;;;;;0.00;0.00;;;;;;;17.78;100.00;102307.78;5113867;28;20024;-44
2023/10/08 02:54:38;;;;;;;0.00;0.00;;;;;;;17.75;100.00;102302.72;5113403;28;20437;-44
2023/10/08 02:57:03;;;;;;;0.00;0.00;;;;;;;17.73;100.00;102302.91;5114170;27;20051;-43
2023/10/08 02:59:39;;;;;;;0.00;0.00;;;;;;;17.72;100.00;102305.81;5110671;28;20027;-44
2023/10/08 03:02:12;;;;;;;0.00;0.00;;;;;;;17.70;100.00;102308.75;5121916;27;20071;-43
2023/10/08 03:04:39;;;;;;;0.00;0.00;;;;;;;17.68;100.00;102310.81;5112230;28;20027;-44
2023/10/08 03:07:11;;;;;;;0.00;0.00;;;;;;;17.67;100.00;102302.88;5111962;28;20074;-44
2023/10/08 03:09:41;;;;;;;0.00;0.00;;;;;;;17.64;100.00;102306.81;5111165;28;20122;-45
2023/10/08 03:12:09;;;;;;;0.00;0.00;;;;;;;17.62;100.00;102308.88;5102018;28;20116;-44
2023/10/08 03:14:47;;;;;;;0.00;0.00;;;;;;;17.60;100.00;102307.38;5100172;27;20106;-43
2023/10/08 03:17:19;;;;;;;0.00;0.00;;;;;;;17.59;100.00;102312.00;5118511;27;20039;-44
2023/10/08 03:19:45;;;;;;;0.00;0.00;;;;;;;17.56;100.00;102325.97;5104045;28;20035;-44
2023/10/08 03:22:12;;;;;;;0.00;0.00;;;;;;;17.53;100.00;102337.25;5102785;28;20036;-45
2023/10/08 03:24:37;;;;;;;0.00;0.00;;;;;;;17.50;100.00;102335.75;5112690;28;20020;-43
2023/10/08 03:27:20;;;;;;;0.00;0.00;;;;;;;17.49;100.00;102349.56;5112068;28;20285;-45
2023/10/08 03:29:46;;;;;;;0.00;0.00;;;;;;;17.48;100.00;102356.03;5112434;28;20037;-43
2023/10/08 03:32:18;;;;;;;0.00;0.00;;;;;;;17.47;100.00;102357.06;5112575;28;20031;-47
2023/10/08 03:34:47;;;;;;;0.00;0.00;;;;;;;17.49;100.00;102360.44;5112173;28;20124;-45
2023/10/08 03:37:21;;;;;;;0.00;0.00;;;;;;;17.49;100.00;102355.00;5112417;28;20493;-43
2023/10/08 03:39:51;;;;;;;0.00;0.00;;;;;;;17.47;100.00;102357.06;5112484;28;20038;-44
2023/10/08 03:42:23;;;;;;;0.00;0.00;;;;;;;17.46;100.00;102367.13;5112300;28;20055;-45
2023/10/08 03:44:51;;;;;;;0.00;0.00;;;;;;;17.45;100.00;102356.41;5112115;28;20065;-45
2023/10/08 03:47:26;;;;;;;0.00;0.00;;;;;;;17.43;100.00;102356.63;5112519;28;20023;-43
2023/10/08 03:49:51;;;;;;;0.00;0.00;;;;;;;17.42;100.00;102364.97;5112432;28;20389;-43
2023/10/08 03:52:23;;;;;;;0.00;0.00;;;;;;;17.43;100.00;102377.53;5112677;28;20031;-44
2023/10/08 03:54:48;;;;;;;0.00;0.00;;;;;;;17.41;100.00;102374.16;5111667;28;20042;-44
2023/10/08 03:57:19;;;;;;;0.00;0.00;;;;;;;17.39;100.00;102381.69;5111673;28;20385;-46
2023/10/08 03:59:48;;;;;;;0.00;0.00;;;;;;;17.39;100.00;102387.13;5111186;28;20481;-44
2023/10/08 04:02:14;;;;;;;0.00;0.00;;;;;;;17.46;100.00;102393.50;5111669;28;20275;-45
2023/10/08 04:04:56;;;;;;;0.00;0.00;;;;;;;17.50;100.00;102394.78;5111811;28;20538;-45
2023/10/08 04:12:50;;;;;;;0.00;0.00;;;;;;;17.46;100.00;102404.38;5111908;28;20032;-44
2023/10/08 04:15:17;;;;;;;0.00;0.00;;;;;;;17.43;100.00;102405.63;5112038;28;20114;-45
2023/10/08 04:17:50;;;;;;;0.00;0.00;;;;;;;17.38;100.00;102412.63;5111142;28;20055;-45
2023/10/08 04:23:02;;;;;;;0.00;0.00;;;;;;;17.26;100.00;102410.38;5111598;28;20102;-45
2023/10/08 04:25:28;;;;;;;0.00;0.00;;;;;;;17.22;100.00;102414.53;5111604;28;20077;-42
2023/10/08 04:28:00;;;;;;;0.00;0.00;;;;;;;17.19;100.00;102406.72;5110847;28;20347;-46
2023/10/08 04:30:32;;;;;;;0.00;0.00;;;;;;;17.21;100.00;102407.38;5108757;28;20039;-43
2023/10/08 04:33:14;;;;;;;0.00;0.00;;;;;;;17.18;100.00;102410.50;5109398;28;20115;-44
2023/10/08 04:36:02;;;;;;;0.00;0.00;;;;;;;17.16;100.00;102407.09;5108901;28;20131;-47
2023/10/08 04:38:28;;;;;;;;;;;;;;;17.15;100.00;102415.47;5109165;28;20084;-46
2023/10/08 04:40:54;;;;;;;0.00;0.00;;;;;;;17.14;100.00;102408.31;5124870;27;19937;-43
2023/10/08 04:43:24;;;;;;;0.00;0.00;;;;;;;17.09;100.00;102408.91;5109420;28;20462;-45
2023/10/08 04:45:51;;;;;;;0.00;0.00;;;;;;;17.07;100.00;102410.97;5108639;28;20039;-44
2023/10/08 04:48:20;;;;;;;0.00;0.00;;;;;;;17.04;100.00;102424.94;5107700;28;20088;-47
2023/10/08 04:50:58;;;;;;;0.00;0.00;;;;;;;17.01;100.00;102436.16;5109071;28;20073;-47
2023/10/08 04:53:36;;;;;;;0.00;0.00;;;;;;;16.97;100.00;102435.69;5109301;28;20031;-46
2023/10/08 04:56:13;;;;;;;0.00;0.00;;;;;;;16.96;100.00;102433.19;5109062;28;20023;-43
2023/10/08 04:58:40;;;;;;;0.00;0.00;;;;;;;16.91;100.00;102424.75;5109194;28;20039;-44
2023/10/08 05:01:29;;;;;;;0.00;0.00;;;;;;;16.89;100.00;102423.03;5108235;28;20377;-43
2023/10/08 05:17:03;;;;;;;0.00;0.00;;;;;;;16.74;100.00;102433.00;5100114;28;20477;-43
2023/10/08 05:19:48;;;;;;;0.00;0.00;;;;;;;16.70;100.00;102428.97;5107526;28;20023;-48
2023/10/08 05:22:18;;;;;;;0.00;0.00;;;;;;;16.68;100.00;102425.59;5088862;28;20077;-45
2023/10/08 05:25:24;;;;;;;0.00;0.00;;;;;;;16.63;100.00;102426.13;5098554;28;20024;-46
2023/10/08 05:35:50;;;;;;;0.00;0.00;;;;;;;16.49;100.00;102420.66;5109118;28;20039;-43
2023/10/08 05:38:37;;;;;;;0.00;0.00;;;;;;;16.44;100.00;102432.91;5106341;28;20031;-43
2023/10/08 05:43:49;;;;;;;0.00;0.00;;;;;;;16.46;100.00;102430.88;5108386;28;20035;-46
2023/10/08 05:49:01;;;;;;;0.00;0.00;;;;;;;16.70;100.00;102436.28;5107742;28;20035;-46
2023/10/08 05:52:11;;;;;;;0.00;0.00;;;;;;;16.65;100.00;102421.34;5105524;28;20114;-43
2023/10/08 06:05:22;;;;;;;0.00;0.00;;;;;;;16.24;100.00;102448.88;5108851;28;20165;-44
2023/10/08 06:07:50;;;;;;;0.00;0.00;;;;;;;16.25;100.00;102447.00;5105811;28;20054;-44
2023/10/08 06:13:06;;;;;;;0.00;0.00;;;;;;;16.14;100.00;102452.81;5099584;28;20050;-46
2023/10/08 06:18:26;;;;;;;0.00;0.00;;;;;;;16.06;100.00;102453.75;5107909;28;20055;-46
2023/10/08 06:20:54;;;;;;;0.00;0.00;;;;;;;16.07;100.00;102462.72;5110403;28;20110;-46
2023/10/08 06:23:20;;;;;;;0.00;0.00;;;;;;;16.00;100.00;102466.13;5108511;28;20019;-43
2023/10/08 06:28:38;;;;;;;0.00;0.00;;;;;;;15.90;100.00;102473.66;5112200;28;20044;-44
2023/10/08 06:31:06;;;;;;;0.00;0.00;;;;;;;15.88;100.00;102472.19;5112989;28;20041;-48
2023/10/08 06:33:33;;;;;;;0.00;0.00;;;;;;;15.92;100.00;102466.19;5113458;28;20119;-43
2023/10/08 06:36:13;;;;;;;0.00;0.00;;;;;;;15.94;100.00;102469.56;5113811;28;20028;-46
2023/10/08 06:38:39;;;;;;;0.00;0.00;;;;;;;15.91;100.00;102459.06;5113325;28;20019;-45
2023/10/08 06:41:15;;;;;;;0.00;0.00;;;;;;;15.89;100.00;102460.28;5112199;28;20032;-46
2023/10/08 06:43:44;;;;;;;0.00;0.00;;;;;;;15.78;100.00;102466.94;5113837;28;20053;-44
2023/10/08 06:46:12;;;;;;;0.00;0.00;;;;;;;15.74;100.00;102476.47;5113843;28;20025;-46
2023/10/08 06:48:41;;;;;;;;;;;;;;;15.74;100.00;102487.31;5103573;28;20023;-46
2023/10/08 06:51:13;;;;;;;0.00;0.00;;;;;;;15.71;100.00;102488.50;5113456;28;20001;-45
2023/10/08 06:53:40;;;;;;;0.00;0.00;;;;;;;15.67;100.00;102484.44;5107228;28;20051;-47
2023/10/08 06:56:05;;;;;;;0.00;0.00;;;;;;;15.69;100.00;102490.56;5111830;28;20066;-48
2023/10/08 06:58:34;;;;;;;0.00;0.00;;;;;;;15.73;100.00;102496.50;5112051;28;20055;-44
2023/10/08 07:01:04;;;;;;;0.00;0.00;;;;;;;15.75;100.00;102486.31;5110497;28;20449;-44
2023/10/08 07:03:31;;;;;;;0.00;0.00;;;;;;;15.72;100.00;102495.66;5110715;28;20028;-45
2023/10/08 07:06:00;;;;;;;0.00;0.00;;;;;;;15.70;100.00;102489.53;5113624;28;20406;-46
2023/10/08 07:08:35;;;;;;;0.00;0.00;;;;;;;15.67;100.00;102484.44;5112413;28;20424;-50
2023/10/08 07:11:06;;;;;;;0.00;0.00;;;;;;;15.64;100.00;102486.63;5112737;28;20077;-46
2023/10/08 07:13:33;;;;;;;0.00;0.00;;;;;;;15.68;100.00;102501.56;5092423;28;20433;-45
2023/10/08 07:16:03;;;;;;;0.00;0.00;;;;;;;15.67;100.00;102508.03;5099655;28;20059;-43
2023/10/08 07:18:31;;;;;;;0.00;0.00;;;;;;;15.58;100.00;102513.44;5109457;28;20106;-45
2023/10/08 07:21:00;;;;;;;0.00;0.00;;;;;;;15.52;100.00;102519.59;5093324;28;20367;-45
2023/10/08 07:23:33;;;;;;;0.00;0.00;;;;;;;15.48;100.00;102518.25;5108505;27;20723;-42
2023/10/08 07:26:10;;;;;;;0.00;0.00;;;;;;;15.46;100.00;102525.72;5111872;28;20023;-47
2023/10/08 07:28:39;;;;;;;0.00;0.00;;;;;;;15.46;100.00;102527.59;5111571;28;20043;-43
2023/10/08 07:31:05;;;;;;;0.00;0.00;;;;;;;15.39;100.00;102519.28;5111754;28;20027;-48
2023/10/08 07:33:36;;;;;;;0.00;0.00;;;;;;;15.33;100.00;102530.84;5112636;28;20032;-45
2023/10/08 07:36:11;;;;;;;0.00;0.00;;;;;;;15.36;100.00;102527.78;5101996;28;20114;-46
2023/10/08 07:38:43;;;;;;;0.00;0.00;;;;;;;15.35;100.00;102528.81;5111619;28;20069;-47
2023/10/08 07:41:12;;;;;;;0.00;0.00;;;;;;;15.37;100.00;102537.59;5112579;27;20118;-44
2023/10/08 07:43:37;;;;;;;0.00;0.00;;;;;;;15.31;100.00;102546.44;5111534;28;20103;-43
2023/10/08 07:46:03;;;;;;;0.00;0.00;;;;;;;15.27;100.00;102545.06;5098337;28;20106;-45
2023/10/08 07:48:29;;;;;;;0.00;0.00;;;;;;;15.29;100.00;102534.91;5109784;28;20291;-45
2023/10/08 07:50:56;;;;;;;0.00;0.00;;;;;;;15.31;100.00;102541.00;5111644;28;20015;-47
2023/10/08 07:53:24;;;;;;;0.00;0.00;;;;;;;15.23;100.00;102541.84;5110529;28;20108;-45
2023/10/08 07:55:51;;;;;;;0.00;0.00;;;;;;;15.31;100.00;102539.13;5108908;28;20512;-45
2023/10/08 07:58:16;;;;;;;0.00;0.00;;;;;;;15.32;100.00;102539.97;5110350;28;20032;-45
2023/10/08 08:00:51;;;;;;;0.00;0.00;;;;;;;15.33;100.00;102541.69;5125098;27;20031;-44
2023/10/08 08:03:19;;;;;;;0.00;0.00;;;;;;;15.44;100.00;102549.47;5114117;27;20055;-43
2023/10/08 08:05:44;;;;;;;0.00;0.00;;;;;;;15.54;100.00;102557.41;5118822;27;20056;-47
2023/10/08 08:08:14;;;;;;;0.00;0.00;;;;;;;15.58;100.00;102546.03;5114864;27;20028;-44
2023/10/08 08:10:41;;;;;;;0.00;0.00;;;;;;;15.69;100.00;102547.59;5108694;28;20543;-46
2023/10/08 08:13:08;;;;;;;0.00;0.00;;;;;;;15.68;100.00;102551.25;5108418;28;20099;-44
2023/10/08 08:15:36;;;;;;;0.00;0.00;;;;;;;15.68;100.00;102550.41;5111353;28;20091;-44
2023/10/08 08:18:05;;;;;;;0.00;0.00;;;;;;;15.63;100.00;102559.06;5110047;28;20065;-44
2023/10/08 08:20:38;;;;;;;0.00;0.00;;;;;;;15.55;100.00;102562.66;5107165;28;20048;-46
2023/10/08 08:23:07;;;;;;;0.00;0.00;;;;;;;15.45;100.00;102555.72;5108613;28;20027;-43
2023/10/08 08:28:25;;;;;;;0.00;0.00;;;;;;;15.50;100.00;102559.63;5056011;28;20051;-47
2023/10/08 08:30:52;;;;;;;0.00;0.00;;;;;;;15.55;100.00;102567.25;5106012;28;20110;-45
2023/10/08 08:33:22;;;;;;;0.00;0.00;;;;;;;15.58;100.00;102566.88;5101866;28;20069;-46
2023/10/08 08:35:58;;;;;;;0.00;0.00;;;;;;;15.61;100.00;102557.56;5103383;28;20031;-48
2023/10/08 08:38:24;;;;;;;0.00;0.00;;;;;;;15.73;100.00;102565.19;5105479;28;20095;-45
2023/10/08 08:40:49;;;;;;;0.00;0.00;;;;;;;15.73;100.00;102569.78;5110615;28;20115;-44
2023/10/08 08:43:16;;;;;;;0.00;0.00;;;;;;;15.70;100.00;102562.84;5108541;27;20070;-44
2023/10/08 08:45:43;;;;;;;0.00;0.00;;;;;;;15.69;100.00;102573.84;5109038;27;20047;-45
2023/10/08 08:48:09;;;;;;;0.00;0.00;;;;;;;15.63;100.00;102571.81;5124498;27;20080;-44
2023/10/08 08:50:34;;;;;;;0.00;0.00;;;;;;;15.62;100.00;102578.28;5100327;28;20027;-46
2023/10/08 08:53:00;;;;;;;0.00;0.00;;;;;;;15.63;100.00;102580.78;5122609;27;20032;-44
2023/10/08 08:55:28;;;;;;;0.00;0.00;;;;;;;15.65;100.00;102580.63;5108310;28;20459;-47
2023/10/08 08:57:53;;;;;;;0.00;0.00;;;;;;;15.68;100.00;102572.13;5107429;27;20423;-48
2023/10/08 09:00:20;;;;;;;0.00;0.00;;;;;;;15.70;100.00;102557.41;5088339;28;20160;-47
2023/10/08 09:02:49;;;;;;;0.00;0.00;;;;;;;15.70;100.00;102564.72;5109229;28;20086;-47
2023/10/08 09:05:26;;;;;;;0.00;0.00;;;;;;;15.72;100.00;102562.69;5111191;28;20118;-46
2023/10/08 09:07:52;;;;;;;0.00;0.00;;;;;;;15.68;100.00;102555.84;5111061;28;20391;-49
2023/10/08 09:10:18;;;;;;;0.00;0.00;;;;;;;15.72;100.00;102551.81;5109508;28;20084;-47
2023/10/08 09:12:43;;;;;;;0.00;0.00;;;;;;;15.71;100.00;102550.09;5108915;28;20032;-49
2023/10/08 09:15:10;;;;;;;0.00;0.00;;;;;;;15.70;100.00;102551.13;5100903;27;20362;-45
2023/10/08 09:17:36;;;;;;;0.00;0.00;;;;;;;15.80;100.00;102549.06;5108405;28;20508;-45
2023/10/08 09:20:06;;;;;;;0.00;0.00;;;;;;;15.84;100.00;102549.56;5108330;28;20024;-45
2023/10/08 09:22:32;;;;;;;0.00;0.00;;;;;;;15.98;100.00;102541.53;5109906;28;20027;-45
2023/10/08 09:24:59;;;;;;;0.00;0.00;;;;;;;15.98;100.00;102538.81;5097586;28;20027;-45
2023/10/08 09:27:26;;;;;;;0.00;0.00;;;;;;;16.03;100.00;102538.25;5106365;28;20127;-44
2023/10/08 09:29:51;;;;;;;0.00;0.00;;;;;;;16.10;100.00;102543.84;5106143;28;20057;-46
2023/10/08 09:32:23;;;;;;;0.00;0.00;;;;;;;16.16;100.00;102554.00;5110375;28;20024;-47
2023/10/08 09:34:50;;;;;;;0.00;0.00;;;;;;;16.26;100.00;102556.50;5110822;28;20031;-46
2023/10/08 09:37:17;;;;;;;0.00;0.00;;;;;;;16.31;100.00;102554.94;5110272;28;20447;-45
2023/10/08 09:39:42;;;;;;;0.00;0.00;;;;;;;16.46;100.00;102550.44;5110780;28;20060;-41
2023/10/08 09:42:11;;;;;;;0.00;0.00;;;;;;;16.44;100.00;102536.19;5092618;28;20028;-45
2023/10/08 09:44:37;;;;;;;0.00;0.00;;;;;;;16.44;100.00;102530.75;5110909;28;20019;-43
2023/10/08 09:47:04;;;;;;;0.00;0.00;;;;;;;16.41;100.00;102541.97;5110518;28;20110;-45
2023/10/08 09:49:41;;;;;;;0.00;0.00;;;;;;;16.38;100.00;102538.78;5113872;28;20081;-46
2023/10/08 09:52:07;;;;;;;0.00;0.00;;;;;;;16.40;100.00;102534.88;5114959;28;20438;-44
2023/10/08 09:54:43;;;;;;;0.00;0.00;;;;;;;16.54;100.00;102540.56;5111988;28;20494;-42
2023/10/08 09:57:10;;;;;;;0.00;0.00;;;;;;;16.59;100.00;102544.41;5092624;28;20032;-45
2023/10/08 09:59:35;;;;;;;0.00;0.00;;;;;;;16.46;100.00;102526.00;5094240;28;20028;-45
2023/10/08 10:02:02;;;;;;;0.00;0.00;;;;;;;16.55;100.00;102534.09;5094123;28;20628;-44
2023/10/08 10:04:31;;;;;;;0.00;0.00;;;;;;;16.49;100.00;102526.66;5093728;28;20032;-46
2023/10/08 10:07:00;;;;;;;0.00;0.00;;;;;;;16.52;100.00;102543.44;5094128;28;20031;-42
2023/10/08 10:09:26;;;;;;;0.00;0.00;;;;;;;16.58;100.00;102537.28;5094438;28;20111;-46
2023/10/08 10:11:53;;;;;;;0.00;0.00;;;;;;;16.66;100.00;102542.66;5093580;28;20514;-47
2023/10/08 10:14:22;;;;;;;0.00;0.00;;;;;;;16.69;100.00;102546.88;5093770;28;20042;-47
2023/10/08 10:17:14;;;;;;;0.00;0.00;;;;;;;16.78;100.00;102547.72;5094006;28;20024;-45
2023/10/08 10:19:45;;;;;;;0.00;0.00;;;;;;;16.96;100.00;102544.69;5094111;28;20071;-44
2023/10/08 10:22:12;;;;;;;0.00;0.00;;;;;;;16.84;100.00;102542.38;5093755;28;20635;-45
2023/10/08 10:24:41;;;;;;;0.00;0.00;;;;;;;16.92;100.00;102548.78;5094135;28;20481;-43
2023/10/08 10:27:17;;;;;;;0.00;0.00;;;;;;;16.86;100.00;102555.81;5093948;28;20390;-46
2023/10/08 10:29:43;;;;;;;0.00;0.00;;;;;;;16.77;100.00;102548.69;5094330;28;20107;-45
2023/10/08 10:32:15;;;;;;;0.00;0.00;;;;;;;16.78;100.00;102553.16;5093809;28;20514;-43
2023/10/08 10:34:44;;;;;;;0.00;0.00;;;;;;;16.84;100.00;102553.25;5093714;28;20105;-46
2023/10/08 10:37:19;;;;;;;0.00;0.00;;;;;;;16.97;100.00;102558.09;5093665;28;20047;-44
2023/10/08 10:40:00;;;;;;;0.00;0.00;;;;;;;16.80;100.00;102557.38;5093146;28;20040;-46
2023/10/08 10:42:28;;;;;;;0.00;0.00;;;;;;;17.07;100.00;102546.97;5093314;28;20039;-44
2023/10/08 10:44:55;;;;;;;0.00;0.00;;;;;;;17.37;100.00;102534.25;5094391;28;20020;-46
2023/10/08 10:58:38;;;;;;;0.00;0.00;;;;;;;17.90;100.00;102528.75;5110155;28;20035;-44
2023/10/08 11:00:47;;;;;;;0.00;0.00;;;;;;;17.92;100.00;102523.97;5105124;28;20393;-42
2023/10/08 11:03:23;;;;;;;0.00;0.00;;;;;;;17.58;100.00;102527.25;5092973;28;20142;-43
2023/10/08 11:05:59;;;;;;;0.00;0.00;;;;;;;17.64;100.00;102527.34;5117380;27;20474;-44
2023/10/08 11:08:26;;;;;;;0.00;0.00;;;;;;;17.12;100.00;102528.22;5093044;28;20045;-46
2023/10/08 11:10:52;;;;;;;0.00;0.00;;;;;;;17.24;100.00;102521.28;5100145;28;20043;-45
2023/10/08 11:13:28;;;;;;;0.00;0.00;;;;;;;17.28;100.00;102519.91;5113701;27;20028;-43
2023/10/08 11:15:54;;;;;;;0.00;0.00;;;;;;;17.51;100.00;102517.09;5117289;27;20122;-47
2023/10/08 11:18:21;;;;;;;0.00;0.00;;;;;;;17.55;100.00;102517.56;5092707;28;20034;-45
2023/10/08 11:20:53;;;;;;;;;;;;;;;17.74;100.00;102514.28;5112504;28;20020;-48
2023/10/08 11:23:33;;;;;;;0.00;0.00;;;;;;;17.80;100.00;102518.19;5110830;28;19915;-50
2023/10/08 11:26:06;;;;;;;0.00;0.00;;;;;;;17.85;100.00;102520.31;5113974;28;20133;-44
2023/10/08 11:28:34;;;;;;;0.00;0.00;;;;;;;17.98;100.00;102525.91;5114112;28;20023;-45
2023/10/08 11:31:10;;;;;;;0.00;0.00;;;;;;;18.02;100.00;102518.22;5112981;28;20599;-47
2023/10/08 11:33:36;;;;;;;0.00;0.00;;;;;;;17.80;100.00;102522.75;5112511;28;20123;-41
2023/10/08 11:36:18;;;;;;;0.00;0.00;;;;;;;17.90;100.00;102517.84;5113076;28;20023;-45
2023/10/08 11:38:47;;;;;;;0.00;0.00;;;;;;;18.02;100.00;102520.97;5112581;28;20024;-46
2023/10/08 11:41:23;;;;;;;0.00;0.00;;;;;;;18.19;100.00;102519.69;5113072;28;20027;-44
2023/10/08 11:43:58;;;;;;;0.00;0.00;;;;;;;18.12;100.00;102511.44;5112689;28;20053;-45
2023/10/08 11:46:38;;;;;;;0.00;0.00;;;;;;;18.24;100.00;102511.78;5111513;28;20039;-44
2023/10/08 11:49:04;;;;;;;0.00;0.00;;;;;;;18.40;100.00;102508.84;5112209;28;20027;-47
2023/10/08 11:51:34;;;;;;;0.00;0.00;;;;;;;18.41;100.00;102501.50;5112629;28;20029;-44
2023/10/08 11:54:05;;;;;;;0.00;0.00;;;;;;;18.43;100.00;102510.31;5112417;28;20023;-45
2023/10/08 11:56:32;;;;;;;0.00;0.00;;;;;;;18.31;100.00;102504.53;5112060;28;20431;-47
2023/10/08 11:59:00;;;;;;;;;;;;;;;18.46;100.00;102503.63;5112658;28;20385;-46
2023/10/08 12:01:26;;;;;;;0.00;0.00;;;;;;;18.72;100.00;102493.00;5112141;28;19937;-48
2023/10/08 12:03:59;;;;;;;0.00;0.00;;;;;;;18.75;100.00;102476.28;5112441;28;20431;-44
2023/10/08 12:06:25;;;;;;;0.00;0.00;;;;;;;18.82;100.00;102474.41;5112487;28;20031;-45
2023/10/08 12:08:53;;;;;;;0.00;0.00;;;;;;;18.89;100.00;102477.22;5112135;28;20031;-42
2023/10/08 12:11:19;;;;;;;0.00;0.00;;;;;;;18.70;100.00;102464.22;5112076;28;20394;-44
2023/10/08 12:13:44;;;;;;;0.00;0.00;;;;;;;18.71;100.00;102463.19;5112127;28;20028;-45
2023/10/08 12:16:18;;;;;;;0.00;0.00;;;;;;;18.71;100.00;102464.03;5112365;28;20114;-45
2023/10/08 12:18:48;;;;;;;0.00;0.00;;;;;;;18.83;100.00;102461.66;5112363;28;20027;-43
2023/10/08 12:21:15;;;;;;;0.00;0.00;;;;;;;18.72;100.00;102453.94;5112360;28;20351;-46
2023/10/08 12:23:43;;;;;;;0.00;0.00;;;;;;;18.33;100.00;102452.56;5112126;28;20035;-43
2023/10/08 12:26:09;;;;;;;0.00;0.00;;;;;;;18.19;100.00;102444.25;5111730;28;20068;-48
2023/10/08 12:28:34;;;;;;;0.00;0.00;;;;;;;18.13;100.00;102450.44;5111756;28;20051;-43
2023/10/08 12:31:00;;;;;;;0.00;0.00;;;;;;;18.01;100.00;102446.56;5112300;28;20077;-41
2023/10/08 12:33:26;;;;;;;0.00;0.00;;;;;;;18.27;100.00;102445.13;5112539;28;20102;-43
2023/10/08 12:35:58;;;;;;;0.00;0.00;;;;;;;18.26;100.00;102443.47;5111928;28;20070;-45
2023/10/08 12:38:24;;;;;;;0.00;0.00;;;;;;;18.34;100.00;102437.88;5112063;28;20028;-43
2023/10/08 12:40:55;;;;;;;0.00;0.00;;;;;;;18.20;100.00;102440.47;5112069;28;20054;-45
2023/10/08 12:43:21;;;;;;;0.00;0.00;;;;;;;18.09;100.00;102429.22;5111389;28;20070;-45